createdAt,value
2022-11-27T00:00:59.233Z,0
2022-11-27T00:01:59.818Z,0
2022-11-27T00:03:00.562Z,0
2022-11-27T00:04:01.317Z,0
2022-11-27T00:05:01.769Z,0
2022-11-27T00:06:02.369Z,0
2022-11-27T00:07:02.979Z,0
2022-11-27T00:08:03.573Z,0
2022-11-27T00:09:04.187Z,0
2022-11-27T00:10:04.803Z,0
2022-11-27T00:11:05.396Z,0
2022-11-27T00:12:05.994Z,0
2022-11-27T00:13:06.581Z,0
2022-11-27T00:14:07.176Z,0
2022-11-27T00:15:07.771Z,0
2022-11-27T00:16:08.461Z,0
2022-11-27T00:17:08.975Z,0
2022-11-27T00:18:09.589Z,0
2022-11-27T00:19:10.181Z,0
2022-11-27T00:20:10.777Z,0
2022-11-27T00:21:11.370Z,0
2022-11-27T00:22:11.967Z,0
2022-11-27T00:23:12.561Z,0
2022-11-27T00:24:13.156Z,0
2022-11-27T00:25:13.754Z,0
2022-11-27T00:26:14.365Z,0
2022-11-27T00:27:14.957Z,0
2022-11-27T00:28:15.554Z,0
2022-11-27T00:29:16.146Z,0
2022-11-27T00:30:16.741Z,0
2022-11-27T00:31:17.459Z,0
2022-11-27T00:32:18.131Z,0
2022-11-27T00:33:18.724Z,0
2022-11-27T00:34:19.319Z,0
2022-11-27T00:35:19.932Z,0
2022-11-27T00:36:20.545Z,0
2022-11-27T00:37:21.157Z,0
2022-11-27T00:38:21.750Z,0
2022-11-27T00:39:22.350Z,0
2022-11-27T00:40:22.939Z,0
2022-11-27T00:41:23.534Z,0
2022-11-27T00:42:24.148Z,0
2022-11-27T00:43:24.741Z,0
2022-11-27T00:44:25.339Z,0
2022-11-27T00:45:25.931Z,0
2022-11-27T00:46:28.680Z,0
2022-11-27T00:47:28.113Z,0
2022-11-27T00:48:28.706Z,0
2022-11-27T00:49:29.300Z,0
2022-11-27T00:50:29.895Z,0
2022-11-27T00:51:30.487Z,0
2022-11-27T00:52:31.087Z,0
2022-11-27T00:53:31.675Z,0
2022-11-27T00:54:32.290Z,0
2022-11-27T00:55:32.902Z,0
2022-11-27T00:56:33.496Z,0
2022-11-27T00:57:34.091Z,0
2022-11-27T00:58:34.695Z,0
2022-11-27T00:59:35.281Z,0
2022-11-27T01:00:35.885Z,0
2022-11-27T01:01:36.518Z,0
2022-11-27T01:02:37.139Z,0
2022-11-27T01:03:37.690Z,0
2022-11-27T01:04:38.605Z,0
2022-11-27T01:05:39.359Z,0
2022-11-27T01:06:39.956Z,0
2022-11-27T01:07:40.573Z,0
2022-11-27T01:08:41.142Z,0
2022-11-27T01:09:41.735Z,0
2022-11-27T01:10:42.332Z,0
2022-11-27T01:11:42.925Z,0
2022-11-27T01:12:43.521Z,0
2022-11-27T01:13:44.114Z,0
2022-11-27T01:14:44.726Z,0
2022-11-27T01:15:45.347Z,0
2022-11-27T01:16:45.918Z,0
2022-11-27T01:17:46.529Z,0
2022-11-27T01:18:47.125Z,0
2022-11-27T01:19:47.717Z,0
2022-11-27T01:20:48.315Z,0
2022-11-27T01:21:48.905Z,0
2022-11-27T01:22:49.498Z,0
2022-11-27T01:23:50.093Z,0
2022-11-27T01:24:50.686Z,0
2022-11-27T01:25:51.277Z,0
2022-11-27T01:26:51.873Z,0
2022-11-27T01:27:52.465Z,0
2022-11-27T01:28:53.061Z,0
2022-11-27T01:29:53.656Z,0
2022-11-27T01:30:54.285Z,0
2022-11-27T01:31:54.862Z,0
2022-11-27T01:32:55.456Z,0
2022-11-27T01:33:56.047Z,0
2022-11-27T01:34:56.644Z,0
2022-11-27T01:35:57.244Z,0
2022-11-27T01:36:57.832Z,0
2022-11-27T01:37:58.426Z,0
2022-11-27T01:38:59.021Z,0
2022-11-27T01:39:59.614Z,0
2022-11-27T01:41:00.208Z,0
2022-11-27T01:42:00.821Z,0
2022-11-27T01:43:01.416Z,0
2022-11-27T01:44:02.032Z,0
2022-11-27T01:45:02.644Z,0
2022-11-27T01:46:03.277Z,0
2022-11-27T01:47:03.826Z,0
2022-11-27T01:48:04.431Z,0
2022-11-27T01:49:05.011Z,0
2022-11-27T01:50:05.604Z,0
2022-11-27T01:51:06.202Z,0
2022-11-27T01:52:06.835Z,0
2022-11-27T01:53:07.431Z,0
2022-11-27T01:54:08.028Z,0
2022-11-27T01:55:08.633Z,0
2022-11-27T01:56:09.231Z,0
2022-11-27T01:57:09.827Z,0
2022-11-27T01:58:10.421Z,0
2022-11-27T01:59:11.032Z,0
2022-11-27T02:00:11.629Z,0
2022-11-27T02:01:12.225Z,0
2022-11-27T02:02:12.927Z,0
2022-11-27T02:03:13.575Z,0
2022-11-27T02:04:14.142Z,0
2022-11-27T02:05:14.752Z,0
2022-11-27T02:06:15.348Z,0
2022-11-27T02:07:15.986Z,0
2022-11-27T02:08:16.545Z,0
2022-11-27T02:09:17.140Z,0
2022-11-27T02:10:17.737Z,0
2022-11-27T02:11:18.327Z,0
2022-11-27T02:12:18.919Z,0
2022-11-27T02:13:19.514Z,0
2022-11-27T02:14:20.106Z,0
2022-11-27T02:15:20.702Z,0
2022-11-27T02:16:21.438Z,0
2022-11-27T02:17:21.986Z,0
2022-11-27T02:18:22.576Z,0
2022-11-27T02:19:23.171Z,0
2022-11-27T02:20:23.764Z,0
2022-11-27T02:21:24.359Z,0
2022-11-27T02:22:24.950Z,0
2022-11-27T02:23:25.545Z,0
2022-11-27T02:24:26.135Z,0
2022-11-27T02:25:28.477Z,0
2022-11-27T02:26:28.314Z,0
2022-11-27T02:27:28.906Z,0
2022-11-27T02:28:29.499Z,0
2022-11-27T02:29:30.114Z,0
2022-11-27T02:30:30.706Z,0
2022-11-27T02:31:31.357Z,0
2022-11-27T02:32:31.973Z,0
2022-11-27T02:33:32.592Z,0
2022-11-27T02:34:33.178Z,0
2022-11-27T02:35:33.772Z,0
2022-11-27T02:36:34.366Z,0
2022-11-27T02:37:34.962Z,0
2022-11-27T02:38:35.554Z,0
2022-11-27T02:39:36.147Z,0
2022-11-27T02:40:36.760Z,0
2022-11-27T02:41:37.356Z,0
2022-11-27T02:42:38.018Z,0
2022-11-27T02:43:38.555Z,0
2022-11-27T02:44:39.364Z,0
2022-11-27T02:45:40.103Z,0
2022-11-27T02:46:40.757Z,0
2022-11-27T02:47:41.342Z,0
2022-11-27T02:48:41.935Z,0
2022-11-27T02:49:42.531Z,0
2022-11-27T02:50:43.125Z,0
2022-11-27T02:51:43.719Z,0
2022-11-27T02:52:44.315Z,0
2022-11-27T02:53:44.907Z,0
2022-11-27T02:54:45.501Z,0
2022-11-27T02:55:46.096Z,0
2022-11-27T02:56:46.691Z,0
2022-11-27T02:57:47.351Z,0
2022-11-27T02:58:47.895Z,0
2022-11-27T02:59:48.486Z,0
2022-11-27T03:00:49.079Z,0
2022-11-27T03:01:49.705Z,0
2022-11-27T03:02:50.315Z,0
2022-11-27T03:03:50.861Z,0
2022-11-27T03:04:51.454Z,0
2022-11-27T03:05:52.048Z,0
2022-11-27T03:06:52.663Z,0
2022-11-27T03:07:53.331Z,0
2022-11-27T03:08:53.890Z,0
2022-11-27T03:09:54.485Z,0
2022-11-27T03:10:55.075Z,0
2022-11-27T03:11:55.669Z,0
2022-11-27T03:12:56.327Z,0
2022-11-27T03:13:56.877Z,0
2022-11-27T03:14:57.469Z,0
2022-11-27T03:15:58.095Z,0
2022-11-27T03:16:58.658Z,0
2022-11-27T03:17:59.673Z,0
2022-11-27T03:18:59.861Z,0
2022-11-27T03:20:00.453Z,0
2022-11-27T03:21:01.049Z,0
2022-11-27T03:22:01.642Z,0
2022-11-27T03:23:02.239Z,0
2022-11-27T03:24:02.830Z,0
2022-11-27T03:25:03.443Z,0
2022-11-27T03:26:04.036Z,0
2022-11-27T03:27:04.627Z,0
2022-11-27T03:28:05.293Z,0
2022-11-27T03:29:05.832Z,0
2022-11-27T03:30:06.424Z,0
2022-11-27T03:31:07.056Z,0
2022-11-27T03:32:07.632Z,0
2022-11-27T03:33:08.222Z,0
2022-11-27T03:34:08.816Z,0
2022-11-27T03:35:09.410Z,0
2022-11-27T03:36:10.001Z,0
2022-11-27T03:37:10.616Z,0
2022-11-27T03:38:11.210Z,0
2022-11-27T03:39:11.801Z,0
2022-11-27T03:40:12.394Z,0
2022-11-27T03:41:12.987Z,0
2022-11-27T03:42:13.581Z,0
2022-11-27T03:43:14.243Z,0
2022-11-27T03:44:14.780Z,0
2022-11-27T03:45:15.372Z,0
2022-11-27T03:46:16.030Z,0
2022-11-27T03:47:16.646Z,0
2022-11-27T03:48:17.178Z,0
2022-11-27T03:49:17.791Z,0
2022-11-27T03:50:18.404Z,0
2022-11-27T03:51:18.994Z,0
2022-11-27T03:52:19.588Z,0
2022-11-27T03:53:20.191Z,0
2022-11-27T03:54:20.776Z,0
2022-11-27T03:55:21.367Z,0
2022-11-27T03:56:21.963Z,0
2022-11-27T03:57:22.554Z,0
2022-11-27T03:58:23.215Z,0
2022-11-27T03:59:23.753Z,0
2022-11-27T04:00:24.344Z,0
2022-11-27T04:01:25.050Z,0
2022-11-27T04:02:25.586Z,0
2022-11-27T04:03:26.212Z,0
2022-11-27T04:04:26.769Z,0
2022-11-27T04:05:27.365Z,0
2022-11-27T04:06:27.959Z,0
2022-11-27T04:07:28.610Z,0
2022-11-27T04:08:29.153Z,0
2022-11-27T04:09:29.747Z,0
2022-11-27T04:10:30.338Z,0
2022-11-27T04:11:30.934Z,0
2022-11-27T04:12:31.523Z,0
2022-11-27T04:13:32.196Z,0
2022-11-27T04:14:32.725Z,0
2022-11-27T04:15:33.338Z,0
2022-11-27T04:16:33.976Z,0
2022-11-27T04:17:34.539Z,0
2022-11-27T04:18:35.132Z,0
2022-11-27T04:19:35.726Z,0
2022-11-27T04:20:36.319Z,0
2022-11-27T04:21:36.914Z,0
2022-11-27T04:22:37.505Z,0
2022-11-27T04:23:38.097Z,0
2022-11-27T04:24:38.941Z,0
2022-11-27T04:25:39.292Z,0
2022-11-27T04:26:39.885Z,0
2022-11-27T04:27:40.480Z,0
2022-11-27T04:28:41.155Z,0
2022-11-27T04:29:41.678Z,0
2022-11-27T04:30:42.269Z,0
2022-11-27T04:31:42.889Z,0
2022-11-27T04:32:43.455Z,0
2022-11-27T04:33:44.049Z,0
2022-11-27T04:34:44.663Z,0
2022-11-27T04:35:45.276Z,0
2022-11-27T04:36:45.868Z,0
2022-11-27T04:37:46.460Z,0
2022-11-27T04:38:47.053Z,0
2022-11-27T04:39:47.648Z,0
2022-11-27T04:40:48.237Z,0
2022-11-27T04:41:48.832Z,0
2022-11-27T04:42:49.420Z,0
2022-11-27T04:43:50.085Z,0
2022-11-27T04:44:50.622Z,0
2022-11-27T04:45:51.214Z,0
2022-11-27T04:46:51.870Z,0
2022-11-27T04:47:52.501Z,0
2022-11-27T04:48:53.094Z,0
2022-11-27T04:49:53.707Z,0
2022-11-27T04:50:54.297Z,0
2022-11-27T04:51:54.890Z,0
2022-11-27T04:52:55.486Z,0
2022-11-27T04:53:56.079Z,0
2022-11-27T04:54:59.990Z,0
2022-11-27T04:55:58.264Z,0
2022-11-27T04:56:58.874Z,0
2022-11-27T04:57:59.474Z,0
2022-11-27T04:59:00.128Z,0
2022-11-27T05:00:00.673Z,0
2022-11-27T05:01:01.347Z,0
2022-11-27T05:02:01.981Z,0
2022-11-27T05:03:02.689Z,0
2022-11-27T05:04:03.251Z,0
2022-11-27T05:05:03.865Z,0
2022-11-27T05:06:04.459Z,0
2022-11-27T05:07:05.051Z,0
2022-11-27T05:08:05.646Z,0
2022-11-27T05:09:06.238Z,0
2022-11-27T05:10:06.832Z,0
2022-11-27T05:11:07.427Z,0
2022-11-27T05:12:08.022Z,0
2022-11-27T05:13:08.614Z,0
2022-11-27T05:14:09.282Z,0
2022-11-27T05:15:09.819Z,0
2022-11-27T05:16:10.451Z,0
2022-11-27T05:17:11.005Z,0
2022-11-27T05:18:11.604Z,0
2022-11-27T05:19:12.193Z,0
2022-11-27T05:20:12.790Z,0
2022-11-27T05:21:13.404Z,0
2022-11-27T05:22:14.019Z,0
2022-11-27T05:23:14.608Z,0
2022-11-27T05:24:15.203Z,0
2022-11-27T05:25:15.797Z,0
2022-11-27T05:26:16.390Z,0
2022-11-27T05:27:16.990Z,0
2022-11-27T05:28:21.119Z,0
2022-11-27T05:29:19.234Z,0
2022-11-27T05:30:19.768Z,0
2022-11-27T05:31:20.400Z,0
2022-11-27T05:32:20.953Z,0
2022-11-27T05:33:21.548Z,0
2022-11-27T05:34:22.146Z,0
2022-11-27T05:35:22.738Z,0
2022-11-27T05:36:23.331Z,0
2022-11-27T05:37:23.924Z,0
2022-11-27T05:38:24.518Z,0
2022-11-27T05:39:25.111Z,0
2022-11-27T05:40:25.706Z,0
2022-11-27T05:41:26.298Z,0
2022-11-27T05:42:26.893Z,0
2022-11-27T05:43:27.507Z,0
2022-11-27T05:44:33.965Z,0
2022-11-27T05:45:29.756Z,0
2022-11-27T05:46:30.370Z,0
2022-11-27T05:47:30.937Z,0
2022-11-27T05:48:31.532Z,0
2022-11-27T05:49:32.124Z,0
2022-11-27T05:50:32.720Z,0
2022-11-27T05:51:33.313Z,0
2022-11-27T05:52:33.909Z,0
2022-11-27T05:53:34.502Z,0
2022-11-27T05:54:35.096Z,0
2022-11-27T05:55:35.689Z,0
2022-11-27T05:56:36.283Z,0
2022-11-27T05:57:36.878Z,0
2022-11-27T05:58:37.491Z,0
2022-11-27T05:59:38.106Z,0
2022-11-27T06:00:38.765Z,0
2022-11-27T06:01:39.409Z,0
2022-11-27T06:02:40.060Z,0
2022-11-27T06:03:40.554Z,0
2022-11-27T06:04:41.345Z,0
2022-11-27T06:05:41.995Z,0
2022-11-27T06:06:42.586Z,0
2022-11-27T06:07:43.331Z,0
2022-11-27T06:08:43.926Z,0
2022-11-27T06:09:44.518Z,0
2022-11-27T06:10:45.109Z,0
2022-11-27T06:11:45.704Z,0
2022-11-27T06:12:46.302Z,0
2022-11-27T06:13:46.890Z,0
2022-11-27T06:14:47.484Z,0
2022-11-27T06:15:48.145Z,0
2022-11-27T06:16:48.783Z,0
2022-11-27T06:17:49.289Z,0
2022-11-27T06:18:49.886Z,0
2022-11-27T06:19:50.475Z,0
2022-11-27T06:20:53.078Z,0
2022-11-27T06:21:52.764Z,0
2022-11-27T06:22:53.295Z,0
2022-11-27T06:23:53.885Z,0
2022-11-27T06:24:54.496Z,0
2022-11-27T06:25:55.096Z,0
2022-11-27T06:26:55.715Z,0
2022-11-27T06:27:56.295Z,0
2022-11-27T06:28:56.890Z,0
2022-11-27T06:29:57.500Z,0
2022-11-27T06:30:58.163Z,0
2022-11-27T06:31:58.756Z,0
2022-11-27T06:32:59.340Z,0
2022-11-27T06:33:59.948Z,0
2022-11-27T06:35:00.543Z,0
2022-11-27T06:36:01.155Z,0
2022-11-27T06:37:01.754Z,0
2022-11-27T06:38:02.342Z,0
2022-11-27T06:39:02.936Z,0
2022-11-27T06:40:03.553Z,0
2022-11-27T06:41:04.144Z,0
2022-11-27T06:42:04.738Z,0
2022-11-27T06:43:05.333Z,0
2022-11-27T06:44:05.928Z,0
2022-11-27T06:45:06.520Z,0
2022-11-27T06:46:07.263Z,0
2022-11-27T06:47:07.725Z,5
2022-11-27T06:48:08.320Z,5
2022-11-27T06:49:08.917Z,5
2022-11-27T06:50:09.534Z,5
2022-11-27T06:51:10.133Z,5
2022-11-27T06:52:10.726Z,5
2022-11-27T06:53:11.321Z,11
2022-11-27T06:54:11.919Z,11
2022-11-27T06:55:12.517Z,11
2022-11-27T06:56:13.111Z,11
2022-11-27T06:57:13.707Z,16
2022-11-27T06:58:14.305Z,16
2022-11-27T06:59:14.901Z,16
2022-11-27T07:00:15.517Z,16
2022-11-27T07:01:16.389Z,16
2022-11-27T07:02:16.809Z,22
2022-11-27T07:03:17.452Z,22
2022-11-27T07:04:18.042Z,22
2022-11-27T07:05:18.660Z,22
2022-11-27T07:06:19.254Z,28
2022-11-27T07:07:19.908Z,28
2022-11-27T07:08:20.481Z,28
2022-11-27T07:09:21.079Z,33
2022-11-27T07:10:21.674Z,33
2022-11-27T07:11:22.272Z,33
2022-11-27T07:12:22.865Z,39
2022-11-27T07:13:23.460Z,39
2022-11-27T07:14:24.078Z,45
2022-11-27T07:15:24.676Z,45
2022-11-27T07:16:25.407Z,50
2022-11-27T07:17:25.884Z,50
2022-11-27T07:18:26.482Z,56
2022-11-27T07:19:27.080Z,56
2022-11-27T07:20:27.715Z,61
2022-11-27T07:21:28.273Z,61
2022-11-27T07:22:28.873Z,67
2022-11-27T07:23:29.487Z,67
2022-11-27T07:24:30.104Z,73
2022-11-27T07:25:30.680Z,78
2022-11-27T07:26:31.278Z,84
2022-11-27T07:27:31.873Z,90
2022-11-27T07:28:32.490Z,90
2022-11-27T07:29:33.089Z,95
2022-11-27T07:30:33.684Z,101
2022-11-27T07:31:34.455Z,106
2022-11-27T07:32:34.900Z,112
2022-11-27T07:33:35.495Z,118
2022-11-27T07:34:36.090Z,118
2022-11-27T07:35:36.688Z,123
2022-11-27T07:36:37.284Z,129
2022-11-27T07:37:37.883Z,129
2022-11-27T07:38:38.485Z,135
2022-11-27T07:40:01.231Z,135
2022-11-27T07:40:40.568Z,135
2022-11-27T07:41:41.168Z,135
2022-11-27T07:42:41.765Z,140
2022-11-27T07:43:42.364Z,146
2022-11-27T07:44:43.138Z,146
2022-11-27T07:45:43.751Z,151
2022-11-27T07:46:50.256Z,151
2022-11-27T07:47:45.983Z,157
2022-11-27T07:48:46.528Z,157
2022-11-27T07:49:47.143Z,157
2022-11-27T07:50:47.741Z,163
2022-11-27T07:51:48.340Z,163
2022-11-27T07:52:48.947Z,168
2022-11-27T07:53:49.535Z,174
2022-11-27T07:54:50.130Z,180
2022-11-27T07:55:50.731Z,180
2022-11-27T07:56:51.328Z,191
2022-11-27T07:57:51.945Z,196
2022-11-27T07:58:52.542Z,202
2022-11-27T07:59:53.162Z,208
2022-11-27T08:00:53.798Z,208
2022-11-27T08:01:54.368Z,208
2022-11-27T08:02:55.038Z,213
2022-11-27T08:03:55.578Z,219
2022-11-27T08:04:56.233Z,219
2022-11-27T08:05:56.825Z,225
2022-11-27T08:06:57.420Z,236
2022-11-27T08:07:58.113Z,230
2022-11-27T08:08:58.785Z,236
2022-11-27T08:09:59.404Z,236
2022-11-27T08:11:00.000Z,236
2022-11-27T08:12:00.595Z,241
2022-11-27T08:13:01.211Z,241
2022-11-27T08:14:01.807Z,241
2022-11-27T08:15:02.403Z,247
2022-11-27T08:16:03.057Z,247
2022-11-27T08:17:03.614Z,247
2022-11-27T08:18:04.284Z,247
2022-11-27T08:19:04.822Z,253
2022-11-27T08:20:05.423Z,253
2022-11-27T08:21:06.019Z,253
2022-11-27T08:22:06.614Z,253
2022-11-27T08:23:07.211Z,258
2022-11-27T08:24:07.808Z,253
2022-11-27T08:25:08.424Z,258
2022-11-27T08:26:09.027Z,258
2022-11-27T08:27:09.618Z,258
2022-11-27T08:28:10.215Z,264
2022-11-27T08:29:10.813Z,270
2022-11-27T08:30:11.408Z,275
2022-11-27T08:31:12.039Z,281
2022-11-27T08:32:12.651Z,281
2022-11-27T08:33:18.444Z,281
2022-11-27T08:34:14.852Z,286
2022-11-27T08:35:15.403Z,292
2022-11-27T08:36:18.327Z,292
2022-11-27T08:37:17.740Z,298
2022-11-27T08:38:18.336Z,303
2022-11-27T08:39:18.935Z,315
2022-11-27T08:40:19.552Z,320
2022-11-27T08:41:20.149Z,326
2022-11-27T08:42:20.746Z,337
2022-11-27T08:43:21.345Z,343
2022-11-27T08:44:21.966Z,354
2022-11-27T08:45:22.596Z,376
2022-11-27T08:46:23.165Z,416
2022-11-27T08:47:23.761Z,421
2022-11-27T08:48:24.361Z,438
2022-11-27T08:49:25.026Z,450
2022-11-27T08:50:25.595Z,416
2022-11-27T08:51:26.167Z,410
2022-11-27T08:52:26.766Z,416
2022-11-27T08:53:27.362Z,421
2022-11-27T08:54:27.959Z,427
2022-11-27T08:55:28.557Z,427
2022-11-27T08:56:29.179Z,438
2022-11-27T08:57:29.796Z,450
2022-11-27T08:58:30.415Z,450
2022-11-27T08:59:31.011Z,478
2022-11-27T09:00:31.609Z,478
2022-11-27T09:01:32.284Z,444
2022-11-27T09:02:32.819Z,450
2022-11-27T09:03:33.433Z,461
2022-11-27T09:04:34.175Z,483
2022-11-27T09:05:34.627Z,506
2022-11-27T09:06:35.242Z,511
2022-11-27T09:07:35.894Z,523
2022-11-27T09:08:36.474Z,523
2022-11-27T09:09:37.067Z,534
2022-11-27T09:10:37.662Z,590
2022-11-27T09:11:38.263Z,658
2022-11-27T09:12:43.239Z,759
2022-11-27T09:13:40.467Z,843
2022-11-27T09:14:41.451Z,877
2022-11-27T09:15:42.168Z,826
2022-11-27T09:16:42.875Z,866
2022-11-27T09:17:43.382Z,894
2022-11-27T09:18:43.978Z,916
2022-11-27T09:19:44.644Z,950
2022-11-27T09:20:45.188Z,967
2022-11-27T09:21:45.803Z,973
2022-11-27T09:22:46.401Z,1001
2022-11-27T09:23:47.003Z,1023
2022-11-27T09:24:47.595Z,900
2022-11-27T09:25:48.196Z,613
2022-11-27T09:26:48.792Z,596
2022-11-27T09:27:49.391Z,579
2022-11-27T09:28:49.987Z,545
2022-11-27T09:29:50.584Z,556
2022-11-27T09:30:51.179Z,562
2022-11-27T09:31:51.842Z,489
2022-11-27T09:32:52.405Z,466
2022-11-27T09:33:53.006Z,450
2022-11-27T09:34:53.751Z,438
2022-11-27T09:35:54.212Z,433
2022-11-27T09:36:54.807Z,427
2022-11-27T09:37:55.584Z,427
2022-11-27T09:38:56.182Z,427
2022-11-27T09:39:56.780Z,433
2022-11-27T09:41:02.869Z,444
2022-11-27T09:41:58.969Z,455
2022-11-27T09:42:59.572Z,472
2022-11-27T09:44:00.162Z,489
2022-11-27T09:45:00.757Z,517
2022-11-27T09:46:01.477Z,545
2022-11-27T09:47:02.052Z,585
2022-11-27T09:48:02.650Z,618
2022-11-27T09:49:03.248Z,720
2022-11-27T09:50:03.918Z,804
2022-11-27T09:51:04.458Z,821
2022-11-27T09:52:05.058Z,725
2022-11-27T09:53:05.654Z,725
2022-11-27T09:54:06.253Z,663
2022-11-27T09:55:06.849Z,624
2022-11-27T09:56:07.448Z,607
2022-11-27T09:57:08.043Z,590
2022-11-27T09:58:08.645Z,579
2022-11-27T09:59:09.240Z,568
2022-11-27T10:00:09.840Z,562
2022-11-27T10:01:10.470Z,545
2022-11-27T10:02:11.130Z,534
2022-11-27T10:03:11.794Z,528
2022-11-27T10:04:12.431Z,523
2022-11-27T10:05:14.401Z,523
2022-11-27T10:06:13.638Z,528
2022-11-27T10:07:14.269Z,540
2022-11-27T10:08:14.973Z,545
2022-11-27T10:09:15.542Z,556
2022-11-27T10:10:16.141Z,568
2022-11-27T10:11:16.738Z,579
2022-11-27T10:12:17.339Z,585
2022-11-27T10:13:17.933Z,590
2022-11-27T10:14:18.527Z,596
2022-11-27T10:15:19.122Z,596
2022-11-27T10:16:19.757Z,596
2022-11-27T10:17:20.364Z,596
2022-11-27T10:18:20.953Z,590
2022-11-27T10:19:21.548Z,590
2022-11-27T10:20:22.213Z,590
2022-11-27T10:21:22.760Z,590
2022-11-27T10:22:23.357Z,590
2022-11-27T10:23:23.954Z,596
2022-11-27T10:24:24.556Z,601
2022-11-27T10:25:25.149Z,601
2022-11-27T10:26:25.745Z,607
2022-11-27T10:27:26.344Z,607
2022-11-27T10:28:26.938Z,601
2022-11-27T10:29:27.534Z,596
2022-11-27T10:30:28.132Z,590
2022-11-27T10:31:28.867Z,579
2022-11-27T10:32:57.343Z,579
2022-11-27T10:33:31.004Z,568
2022-11-27T10:34:31.602Z,562
2022-11-27T10:35:32.313Z,562
2022-11-27T10:36:32.826Z,556
2022-11-27T10:37:33.421Z,556
2022-11-27T10:38:34.019Z,562
2022-11-27T10:39:34.620Z,568
2022-11-27T10:40:35.235Z,562
2022-11-27T10:41:49.233Z,562
2022-11-27T10:42:37.425Z,556
2022-11-27T10:43:38.020Z,551
2022-11-27T10:44:39.031Z,545
2022-11-27T10:45:39.854Z,540
2022-11-27T10:46:40.425Z,534
2022-11-27T10:47:41.020Z,528
2022-11-27T10:48:41.621Z,523
2022-11-27T10:49:42.222Z,517
2022-11-27T10:50:42.886Z,511
2022-11-27T10:51:43.428Z,511
2022-11-27T10:52:47.099Z,511
2022-11-27T10:53:44.653Z,506
2022-11-27T10:54:45.250Z,506
2022-11-27T10:55:45.849Z,500
2022-11-27T10:56:46.468Z,495
2022-11-27T10:57:47.062Z,489
2022-11-27T10:58:47.659Z,489
2022-11-27T10:59:48.255Z,495
2022-11-27T11:00:48.935Z,506
2022-11-27T11:01:49.535Z,523
2022-11-27T11:02:50.186Z,540
2022-11-27T11:03:50.745Z,556
2022-11-27T11:05:16.208Z,573
2022-11-27T11:06:19.378Z,596
2022-11-27T11:06:53.609Z,613
2022-11-27T11:07:54.246Z,630
2022-11-27T11:08:58.547Z,646
2022-11-27T11:09:56.378Z,652
2022-11-27T11:10:56.962Z,658
2022-11-27T11:11:57.571Z,663
2022-11-27T11:12:58.158Z,663
2022-11-27T11:13:58.760Z,675
2022-11-27T11:14:59.353Z,691
2022-11-27T11:15:59.950Z,703
2022-11-27T11:17:00.613Z,714
2022-11-27T11:18:01.168Z,720
2022-11-27T11:19:01.785Z,731
2022-11-27T11:20:02.381Z,731
2022-11-27T11:21:02.978Z,731
2022-11-27T11:22:03.665Z,736
2022-11-27T11:23:04.204Z,720
2022-11-27T11:24:04.801Z,703
2022-11-27T11:25:05.418Z,675
2022-11-27T11:26:06.013Z,646
2022-11-27T11:27:06.613Z,630
2022-11-27T11:28:07.210Z,613
2022-11-27T11:29:07.805Z,596
2022-11-27T11:30:08.400Z,585
2022-11-27T11:31:09.001Z,579
2022-11-27T11:32:09.664Z,573
2022-11-27T11:33:10.226Z,573
2022-11-27T11:34:10.823Z,585
2022-11-27T11:35:11.423Z,596
2022-11-27T11:36:12.017Z,624
2022-11-27T11:37:12.691Z,646
2022-11-27T11:38:13.227Z,641
2022-11-27T11:39:13.825Z,641
2022-11-27T11:40:16.313Z,624
2022-11-27T11:41:16.013Z,607
2022-11-27T11:42:16.607Z,607
2022-11-27T11:43:17.205Z,590
2022-11-27T11:44:17.799Z,585
2022-11-27T11:45:18.416Z,579
2022-11-27T11:46:19.043Z,585
2022-11-27T11:47:19.609Z,585
2022-11-27T11:48:20.219Z,579
2022-11-27T11:49:20.805Z,562
2022-11-27T11:50:21.400Z,556
2022-11-27T11:51:27.862Z,551
2022-11-27T11:52:23.652Z,551
2022-11-27T11:53:24.195Z,551
2022-11-27T11:54:24.809Z,551
2022-11-27T11:55:25.408Z,551
2022-11-27T11:56:26.007Z,551
2022-11-27T11:57:26.604Z,551
2022-11-27T11:58:27.202Z,551
2022-11-27T11:59:27.799Z,551
2022-11-27T12:00:32.327Z,551
2022-11-27T12:01:29.992Z,556
2022-11-27T12:02:30.684Z,556
2022-11-27T12:03:31.286Z,562
2022-11-27T12:04:31.935Z,556
2022-11-27T12:05:32.489Z,556
2022-11-27T12:06:33.086Z,556
2022-11-27T12:07:33.799Z,556
2022-11-27T12:08:34.295Z,551
2022-11-27T12:09:34.894Z,545
2022-11-27T12:10:35.499Z,540
2022-11-27T12:11:36.106Z,545
2022-11-27T12:12:36.705Z,545
2022-11-27T12:13:37.302Z,540
2022-11-27T12:14:38.282Z,540
2022-11-27T12:15:39.050Z,545
2022-11-27T12:16:39.774Z,545
2022-11-27T12:17:40.342Z,551
2022-11-27T12:18:40.939Z,551
2022-11-27T12:19:41.539Z,545
2022-11-27T12:20:42.156Z,545
2022-11-27T12:21:42.754Z,534
2022-11-27T12:22:43.420Z,528
2022-11-27T12:23:43.965Z,523
2022-11-27T12:24:44.585Z,517
2022-11-27T12:25:45.182Z,511
2022-11-27T12:26:45.778Z,500
2022-11-27T12:27:46.398Z,489
2022-11-27T12:28:46.993Z,489
2022-11-27T12:29:47.592Z,472
2022-11-27T12:30:48.208Z,478
2022-11-27T12:31:48.926Z,461
2022-11-27T12:32:49.482Z,455
2022-11-27T12:33:50.078Z,455
2022-11-27T12:34:50.676Z,450
2022-11-27T12:35:51.273Z,450
2022-11-27T12:36:51.889Z,450
2022-11-27T12:37:52.555Z,455
2022-11-27T12:38:53.099Z,466
2022-11-27T12:39:53.695Z,472
2022-11-27T12:40:54.298Z,478
2022-11-27T12:41:54.911Z,489
2022-11-27T12:42:55.512Z,506
2022-11-27T12:43:56.124Z,511
2022-11-27T12:44:56.704Z,523
2022-11-27T12:45:57.397Z,528
2022-11-27T12:46:57.990Z,528
2022-11-27T12:47:58.585Z,528
2022-11-27T12:48:59.183Z,528
2022-11-27T12:49:59.778Z,523
2022-11-27T12:51:00.377Z,506
2022-11-27T12:52:00.971Z,500
2022-11-27T12:53:01.638Z,483
2022-11-27T12:54:02.179Z,478
2022-11-27T12:55:02.778Z,478
2022-11-27T12:56:03.372Z,478
2022-11-27T12:57:03.971Z,478
2022-11-27T12:58:04.563Z,472
2022-11-27T12:59:05.162Z,472
2022-11-27T13:00:05.758Z,472
2022-11-27T13:01:06.412Z,466
2022-11-27T13:02:07.003Z,466
2022-11-27T13:03:07.565Z,461
2022-11-27T13:04:08.162Z,450
2022-11-27T13:05:08.757Z,444
2022-11-27T13:06:09.354Z,444
2022-11-27T13:07:09.951Z,444
2022-11-27T13:08:10.617Z,433
2022-11-27T13:09:11.162Z,427
2022-11-27T13:10:11.757Z,421
2022-11-27T13:11:12.373Z,416
2022-11-27T13:12:12.971Z,410
2022-11-27T13:13:13.574Z,399
2022-11-27T13:14:14.168Z,399
2022-11-27T13:15:14.781Z,388
2022-11-27T13:16:15.484Z,382
2022-11-27T13:17:15.986Z,376
2022-11-27T13:18:16.581Z,365
2022-11-27T13:19:17.195Z,365
2022-11-27T13:20:17.789Z,360
2022-11-27T13:21:18.386Z,360
2022-11-27T13:22:18.981Z,360
2022-11-27T13:23:19.660Z,360
2022-11-27T13:24:20.189Z,365
2022-11-27T13:25:20.793Z,371
2022-11-27T13:26:26.132Z,376
2022-11-27T13:27:22.974Z,382
2022-11-27T13:28:23.572Z,388
2022-11-27T13:29:24.170Z,393
2022-11-27T13:30:24.784Z,388
2022-11-27T13:31:25.420Z,388
2022-11-27T13:32:25.985Z,388
2022-11-27T13:33:26.585Z,388
2022-11-27T13:34:27.183Z,388
2022-11-27T13:35:27.796Z,388
2022-11-27T13:36:32.098Z,388
2022-11-27T13:37:29.986Z,388
2022-11-27T13:38:30.648Z,388
2022-11-27T13:39:31.206Z,388
2022-11-27T13:40:31.805Z,382
2022-11-27T13:41:32.401Z,382
2022-11-27T13:42:33.020Z,382
2022-11-27T13:43:33.617Z,376
2022-11-27T13:44:34.211Z,371
2022-11-27T13:45:34.876Z,365
2022-11-27T13:46:35.428Z,354
2022-11-27T13:47:36.024Z,348
2022-11-27T13:48:36.639Z,343
2022-11-27T13:49:37.241Z,331
2022-11-27T13:50:37.831Z,326
2022-11-27T13:51:38.432Z,326
2022-11-27T13:52:39.045Z,315
2022-11-27T13:53:39.737Z,309
2022-11-27T13:54:40.281Z,298
2022-11-27T13:55:40.876Z,292
2022-11-27T13:56:41.472Z,281
2022-11-27T13:57:42.068Z,270
2022-11-27T13:58:42.664Z,264
2022-11-27T13:59:43.262Z,253
2022-11-27T14:00:43.918Z,241
2022-11-27T14:01:44.533Z,236
2022-11-27T14:02:45.218Z,225
2022-11-27T14:03:45.792Z,213
2022-11-27T14:04:46.387Z,202
2022-11-27T14:05:46.986Z,196
2022-11-27T14:06:47.601Z,185
2022-11-27T14:07:48.223Z,174
2022-11-27T14:08:48.859Z,174
2022-11-27T14:09:49.410Z,168
2022-11-27T14:10:50.005Z,163
2022-11-27T14:11:50.606Z,157
2022-11-27T14:12:51.201Z,151
2022-11-27T14:13:51.797Z,146
2022-11-27T14:14:52.393Z,146
2022-11-27T14:15:53.024Z,140
2022-11-27T14:16:53.587Z,140
2022-11-27T14:17:54.244Z,135
2022-11-27T14:18:54.872Z,135
2022-11-27T14:19:55.468Z,129
2022-11-27T14:20:56.069Z,129
2022-11-27T14:21:56.658Z,123
2022-11-27T14:23:13.629Z,123
2022-11-27T14:23:58.912Z,118
2022-11-27T14:24:59.451Z,112